Terminal Aerodrome Forecast
Issued by NWS Pocatello, ID

Home | Current Version | Previous Version | Text Only | Print | Product List | Glossary On
Versions: 1 2 3 4 5 6 7 8 9 10 11 12 13 14 15 16 17
000
FTUS45 KPIH 302343 AAA
TAFIDA
TAF AMD
KIDA 302343Z 3100/3124 19013G21KT P6SM VCTS SCT060CB BKN110
      TEMPO 3100/3102 25025G45KT 3SM -TSRA BKN060CB
     FM310200 VRB06KT P6SM SCT120 BKN200
     FM311800 22015G25KT P6SM VCTS SCT060 BKN120CB=

USA.gov is the U.S. government's official web portal to all federal, state and local government web resources and services.